createdAt,value
2022-10-18T00:00:13.055Z,1002.02
2022-10-18T00:01:13.021Z,1002.06
2022-10-18T00:02:13.031Z,1002.01
2022-10-18T00:03:13.001Z,1002.07
2022-10-18T00:04:13.939Z,1002.06
2022-10-18T00:05:12.984Z,1002.08
2022-10-18T00:06:12.986Z,1002.11
2022-10-18T00:07:13.040Z,1002.13
2022-10-18T00:08:12.935Z,1002.13
2022-10-18T00:09:12.955Z,1002.08
2022-10-18T00:10:12.924Z,1002.10
2022-10-18T00:11:12.883Z,1002.10
2022-10-18T00:12:12.875Z,1002.03
2022-10-18T00:13:12.894Z,1002.00
2022-10-18T00:14:12.939Z,1002.04
2022-10-18T00:15:12.888Z,1001.97
2022-10-18T00:16:12.900Z,1001.98
2022-10-18T00:17:12.867Z,1001.99
2022-10-18T00:18:12.847Z,1002.02
2022-10-18T00:19:12.844Z,1002.01
2022-10-18T00:20:12.827Z,1002.04
2022-10-18T00:21:12.771Z,1002.06
2022-10-18T00:22:12.846Z,1002.09
2022-10-18T00:23:12.748Z,1002.02
2022-10-18T00:24:12.777Z,1002.14
2022-10-18T00:25:12.748Z,1002.16
2022-10-18T00:26:12.761Z,1002.15
2022-10-18T00:27:12.716Z,1002.12
2022-10-18T00:28:12.721Z,1002.08
2022-10-18T00:29:12.705Z,1002.07
2022-10-18T00:30:12.697Z,1002.09
2022-10-18T00:31:12.686Z,1002.08
2022-10-18T00:32:12.661Z,1002.10
2022-10-18T00:33:12.664Z,1002.14
2022-10-18T00:34:12.671Z,1002.11
2022-10-18T00:35:12.653Z,1002.12
2022-10-18T00:36:12.631Z,1002.12
2022-10-18T00:37:12.596Z,1002.10
2022-10-18T00:38:12.612Z,1002.16
2022-10-18T00:39:12.568Z,1002.11
2022-10-18T00:40:12.607Z,1002.18
2022-10-18T00:41:12.593Z,1002.13
2022-10-18T00:42:12.622Z,1002.14
2022-10-18T00:43:12.549Z,1002.10
2022-10-18T00:44:12.527Z,1002.14
2022-10-18T00:45:12.540Z,1002.11
2022-10-18T00:46:12.546Z,1002.11
2022-10-18T00:47:13.197Z,1002.04
2022-10-18T00:48:12.493Z,1002.03
2022-10-18T00:49:12.513Z,1002.08
2022-10-18T00:50:13.465Z,1002.06
2022-10-18T00:51:12.486Z,1002.05
2022-10-18T00:52:12.466Z,1002.07
2022-10-18T00:53:12.417Z,1002.08
2022-10-18T00:54:12.433Z,1002.06
2022-10-18T00:55:12.417Z,1002.04
2022-10-18T00:56:12.432Z,1002.07
2022-10-18T00:57:12.404Z,1002.08
2022-10-18T00:58:12.374Z,1002.08
2022-10-18T00:59:12.438Z,1002.07
2022-10-18T01:00:12.374Z,1002.06
2022-10-18T01:01:12.439Z,1002.12
2022-10-18T01:02:12.403Z,1002.00
2022-10-18T01:03:12.889Z,1002.01
2022-10-18T01:04:12.328Z,1002.05
2022-10-18T01:05:12.843Z,1002.04
2022-10-18T01:06:12.283Z,1001.97
2022-10-18T01:07:12.282Z,1002.10
2022-10-18T01:08:12.318Z,1002.05
2022-10-18T01:09:12.279Z,1002.12
2022-10-18T01:10:12.282Z,1002.08
2022-10-18T01:11:12.930Z,1002.13
2022-10-18T01:12:12.232Z,1002.12
2022-10-18T01:13:12.242Z,1002.11
2022-10-18T01:14:12.242Z,1002.05
2022-10-18T01:15:12.198Z,1002.05
2022-10-18T01:16:12.204Z,1002.08
2022-10-18T01:17:12.191Z,1002.09
2022-10-18T01:18:12.161Z,1002.06
2022-10-18T01:19:12.164Z,1002.02
2022-10-18T01:20:12.153Z,1002.00
2022-10-18T01:21:12.191Z,1002.02
2022-10-18T01:22:12.151Z,1002.05
2022-10-18T01:23:12.107Z,1002.06
2022-10-18T01:24:12.140Z,1002.08
2022-10-18T01:25:12.116Z,1002.11
2022-10-18T01:26:12.065Z,1002.05
2022-10-18T01:27:12.082Z,1002.08
2022-10-18T01:28:12.068Z,1002.08
2022-10-18T01:29:12.059Z,1002.06
2022-10-18T01:30:12.036Z,1002.02
2022-10-18T01:31:12.032Z,1001.99
2022-10-18T01:32:12.049Z,1002.03
2022-10-18T01:33:12.023Z,1002.01
2022-10-18T01:34:12.003Z,1001.97
2022-10-18T01:35:11.984Z,1002.02
2022-10-18T01:36:12.005Z,1002.01
2022-10-18T01:37:11.964Z,1001.93
2022-10-18T01:38:11.980Z,1001.89
2022-10-18T01:39:11.949Z,1001.80
2022-10-18T01:40:11.943Z,1001.86
2022-10-18T01:41:14.960Z,1001.83
2022-10-18T01:42:11.933Z,1001.84
2022-10-18T01:43:11.894Z,1001.78
2022-10-18T01:44:11.917Z,1001.82
2022-10-18T01:45:11.876Z,1001.85
2022-10-18T01:46:11.877Z,1001.86
2022-10-18T01:47:11.853Z,1001.83
2022-10-18T01:48:11.852Z,1001.78
2022-10-18T01:49:11.832Z,1001.81
2022-10-18T01:50:11.818Z,1001.80
2022-10-18T01:51:11.821Z,1001.73
2022-10-18T01:52:11.911Z,1001.78
2022-10-18T01:53:11.814Z,1001.70
2022-10-18T01:54:11.781Z,1001.66
2022-10-18T01:55:11.782Z,1001.66
2022-10-18T01:56:11.784Z,1001.67
2022-10-18T01:57:11.790Z,1001.69
2022-10-18T01:58:11.746Z,1001.76
2022-10-18T01:59:11.793Z,1001.76
2022-10-18T02:00:11.710Z,1001.77
2022-10-18T02:02:12.706Z,1001.66
2022-10-18T02:03:11.673Z,1001.72
2022-10-18T02:04:11.710Z,1001.67
2022-10-18T02:05:11.637Z,1001.65
2022-10-18T02:06:11.670Z,1001.69
2022-10-18T02:07:11.609Z,1001.63
2022-10-18T02:08:22.890Z,1001.66
2022-10-18T02:09:13.626Z,1001.61
2022-10-18T02:10:11.627Z,1001.61
2022-10-18T02:11:11.590Z,1001.61
2022-10-18T02:12:11.589Z,1001.53
2022-10-18T02:13:11.593Z,1001.54
2022-10-18T02:14:11.585Z,1001.45
2022-10-18T02:15:11.564Z,1001.43
2022-10-18T02:16:11.519Z,1001.44
2022-10-18T02:17:11.534Z,1001.38
2022-10-18T02:18:11.538Z,1001.42
2022-10-18T02:19:11.599Z,1001.45
2022-10-18T02:20:11.499Z,1001.53
2022-10-18T02:21:12.527Z,1001.52
2022-10-18T02:22:11.480Z,1001.55
2022-10-18T02:23:11.443Z,1001.54
2022-10-18T02:24:11.574Z,1001.56
2022-10-18T02:25:11.418Z,1001.53
2022-10-18T02:26:11.386Z,1001.53
2022-10-18T02:27:11.422Z,1001.59
2022-10-18T02:28:11.408Z,1001.55
2022-10-18T02:29:45.791Z,1001.54
2022-10-18T02:30:11.363Z,1001.54
2022-10-18T02:31:11.342Z,1001.51
2022-10-18T02:32:11.356Z,1001.54
2022-10-18T02:33:11.326Z,1001.49
2022-10-18T02:34:11.317Z,1001.54
2022-10-18T02:35:11.352Z,1001.52
2022-10-18T02:36:11.360Z,1001.44
2022-10-18T02:37:11.371Z,1001.44
2022-10-18T02:38:11.311Z,1001.44
2022-10-18T02:39:11.287Z,1001.43
2022-10-18T02:40:11.295Z,1001.47
2022-10-18T02:41:11.300Z,1001.48
2022-10-18T02:42:11.244Z,1001.42
2022-10-18T02:43:11.261Z,1001.42
2022-10-18T02:44:11.240Z,1001.47
2022-10-18T02:45:11.236Z,1001.43
2022-10-18T02:46:11.247Z,1001.45
2022-10-18T02:47:11.199Z,1001.41
2022-10-18T02:48:11.160Z,1001.38
2022-10-18T02:49:11.176Z,1001.36
2022-10-18T02:50:11.192Z,1001.34
2022-10-18T02:51:11.133Z,1001.39
2022-10-18T02:52:11.155Z,1001.40
2022-10-18T02:53:11.140Z,1001.39
2022-10-18T02:54:11.432Z,1001.41
2022-10-18T02:55:11.232Z,1001.40
2022-10-18T02:56:11.093Z,1001.39
2022-10-18T02:57:11.107Z,1001.45
2022-10-18T02:58:11.045Z,1001.46
2022-10-18T02:59:11.088Z,1001.48
2022-10-18T03:00:11.092Z,1001.44
2022-10-18T03:01:11.071Z,1001.49
2022-10-18T03:02:11.056Z,1001.41
2022-10-18T03:03:11.028Z,1001.47
2022-10-18T03:04:11.009Z,1001.51
2022-10-18T03:05:11.980Z,1001.48
2022-10-18T03:06:10.967Z,1001.50
2022-10-18T03:07:10.981Z,1001.48
2022-10-18T03:08:10.934Z,1001.45
2022-10-18T03:09:10.962Z,1001.41
2022-10-18T03:10:10.934Z,1001.49
2022-10-18T03:11:10.910Z,1001.49
2022-10-18T03:12:10.889Z,1001.51
2022-10-18T03:13:10.920Z,1001.55
2022-10-18T03:14:10.883Z,1001.59
2022-10-18T03:15:10.947Z,1001.64
2022-10-18T03:16:10.851Z,1001.60
2022-10-18T03:17:10.866Z,1001.61
2022-10-18T03:18:10.822Z,1001.58
2022-10-18T03:19:10.852Z,1001.61
2022-10-18T03:20:10.878Z,1001.60
2022-10-18T03:21:10.833Z,1001.56
2022-10-18T03:22:10.786Z,1001.60
2022-10-18T03:23:10.790Z,1001.57
2022-10-18T03:24:10.753Z,1001.62
2022-10-18T03:25:11.420Z,1001.63
2022-10-18T03:26:10.715Z,1001.66
2022-10-18T03:27:10.746Z,1001.66
2022-10-18T03:28:10.707Z,1001.71
2022-10-18T03:29:10.813Z,1001.74
2022-10-18T03:30:10.690Z,1001.76
2022-10-18T03:31:10.766Z,1001.68
2022-10-18T03:32:10.647Z,1001.74
2022-10-18T03:33:11.355Z,1001.72
2022-10-18T03:34:10.623Z,1001.74
2022-10-18T03:35:10.626Z,1001.70
2022-10-18T03:36:10.655Z,1001.71
2022-10-18T03:37:10.688Z,1001.76
2022-10-18T03:38:10.631Z,1001.85
2022-10-18T03:39:11.623Z,1001.78
2022-10-18T03:40:10.580Z,1001.81
2022-10-18T03:41:10.556Z,1001.77
2022-10-18T03:42:10.571Z,1001.74
2022-10-18T03:43:10.579Z,1001.79
2022-10-18T03:44:10.561Z,1001.83
2022-10-18T03:45:10.570Z,1001.85
2022-10-18T03:46:10.499Z,1001.78
2022-10-18T03:47:10.540Z,1001.78
2022-10-18T03:48:10.491Z,1001.80
2022-10-18T03:49:10.484Z,1001.79
2022-10-18T03:50:10.480Z,1001.77
2022-10-18T03:51:11.497Z,1001.80
2022-10-18T03:52:10.510Z,1001.80
2022-10-18T03:53:10.405Z,1001.85
2022-10-18T03:54:10.432Z,1001.78
2022-10-18T03:55:10.596Z,1001.85
2022-10-18T03:56:10.461Z,1001.86
2022-10-18T03:57:10.368Z,1001.91
2022-10-18T03:58:10.461Z,1001.89
2022-10-18T03:59:10.374Z,1001.88
2022-10-18T04:00:10.417Z,1001.93
2022-10-18T04:01:10.365Z,1002.00
2022-10-18T04:02:10.317Z,1002.01
2022-10-18T04:03:10.357Z,1001.90
2022-10-18T04:04:10.336Z,1001.97
2022-10-18T04:05:10.265Z,1001.98
2022-10-18T04:06:10.480Z,1001.97
2022-10-18T04:07:10.256Z,1001.99
2022-10-18T04:08:10.355Z,1001.98
2022-10-18T04:09:10.419Z,1001.96
2022-10-18T04:10:10.216Z,1001.98
2022-10-18T04:11:10.337Z,1001.98
2022-10-18T04:12:10.209Z,1001.93
2022-10-18T04:13:10.196Z,1001.90
2022-10-18T04:14:10.188Z,1001.91
2022-10-18T04:15:10.274Z,1001.89
2022-10-18T04:16:10.288Z,1001.90
2022-10-18T04:17:10.686Z,1001.84
2022-10-18T04:18:10.146Z,1001.90
2022-10-18T04:19:10.187Z,1001.97
2022-10-18T04:20:10.201Z,1001.95
2022-10-18T04:21:10.144Z,1001.92
2022-10-18T04:22:10.146Z,1001.98
2022-10-18T04:23:10.117Z,1002.00
2022-10-18T04:24:10.086Z,1002.03
2022-10-18T04:25:10.113Z,1002.03
2022-10-18T04:26:10.050Z,1002.05
2022-10-18T04:27:10.099Z,1002.08
2022-10-18T04:28:10.050Z,1002.09
2022-10-18T04:29:10.110Z,1002.03
2022-10-18T04:30:10.054Z,1002.02
2022-10-18T04:31:10.031Z,1001.97
2022-10-18T04:32:10.062Z,1001.99
2022-10-18T04:33:10.031Z,1001.99
2022-10-18T04:34:09.993Z,1001.99
2022-10-18T04:35:09.967Z,1001.88
2022-10-18T04:36:09.962Z,1001.87
2022-10-18T04:37:09.967Z,1001.88
2022-10-18T04:38:10.203Z,1001.90
2022-10-18T04:39:09.935Z,1001.84
2022-10-18T04:40:09.907Z,1001.90
2022-10-18T04:41:09.991Z,1001.73
2022-10-18T04:42:09.887Z,1001.80
2022-10-18T04:43:09.886Z,1001.78
2022-10-18T04:44:09.931Z,1001.78
2022-10-18T04:45:09.839Z,1001.83
2022-10-18T04:46:09.809Z,1001.84
2022-10-18T04:47:09.835Z,1001.84
2022-10-18T04:48:09.827Z,1001.87
2022-10-18T04:49:09.820Z,1001.88
2022-10-18T04:50:09.802Z,1001.77
2022-10-18T04:51:09.830Z,1001.83
2022-10-18T04:52:09.767Z,1001.77
2022-10-18T04:53:09.815Z,1001.75
2022-10-18T04:54:09.750Z,1001.84
2022-10-18T04:55:09.774Z,1001.85
2022-10-18T04:56:09.794Z,1001.81
2022-10-18T04:57:09.723Z,1001.85
2022-10-18T04:58:09.824Z,1001.84
2022-10-18T04:59:09.727Z,1001.80
2022-10-18T05:00:09.799Z,1001.80
2022-10-18T05:01:09.709Z,1001.86
2022-10-18T05:02:09.697Z,1001.82
2022-10-18T05:03:09.668Z,1001.80
2022-10-18T05:04:09.699Z,1001.72
2022-10-18T05:05:11.800Z,1001.69
2022-10-18T05:06:09.679Z,1001.71
2022-10-18T05:07:09.620Z,1001.63
2022-10-18T05:08:09.817Z,1001.56
2022-10-18T05:09:09.620Z,1001.55
2022-10-18T05:10:09.616Z,1001.58
2022-10-18T05:12:09.564Z,1001.53
2022-10-18T05:13:09.569Z,1001.57
2022-10-18T05:14:09.540Z,1001.54
2022-10-18T05:15:09.515Z,1001.57
2022-10-18T05:16:09.608Z,1001.57
2022-10-18T05:17:09.497Z,1001.58
2022-10-18T05:18:09.484Z,1001.66
2022-10-18T05:19:09.470Z,1001.73
2022-10-18T05:20:09.560Z,1001.74
2022-10-18T05:21:09.541Z,1001.74
2022-10-18T05:22:09.497Z,1001.75
2022-10-18T05:23:09.487Z,1001.75
2022-10-18T05:24:09.413Z,1001.74
2022-10-18T05:25:09.454Z,1001.75
2022-10-18T05:26:09.704Z,1001.70
2022-10-18T05:27:09.493Z,1001.72
2022-10-18T05:28:15.638Z,1001.74
2022-10-18T05:29:11.486Z,1001.66
2022-10-18T05:30:09.367Z,1001.67
2022-10-18T05:31:09.454Z,1001.68
2022-10-18T05:32:10.287Z,1001.66
2022-10-18T05:33:09.321Z,1001.63
2022-10-18T05:34:09.859Z,1001.65
2022-10-18T05:35:09.296Z,1001.60
2022-10-18T05:36:09.485Z,1001.66
2022-10-18T05:37:09.306Z,1001.62
2022-10-18T05:38:09.308Z,1001.64
2022-10-18T05:39:09.274Z,1001.66
2022-10-18T05:40:09.921Z,1001.68
2022-10-18T05:41:09.226Z,1001.62
2022-10-18T05:42:09.439Z,1001.65
2022-10-18T05:43:10.209Z,1001.61
2022-10-18T05:44:09.181Z,1001.62
2022-10-18T05:45:09.178Z,1001.64
2022-10-18T05:46:14.650Z,1001.65
2022-10-18T05:47:11.246Z,1001.63
2022-10-18T05:48:09.867Z,1001.67
2022-10-18T05:49:09.170Z,1001.70
2022-10-18T05:50:09.949Z,1001.67
2022-10-18T05:51:09.123Z,1001.68
2022-10-18T05:52:09.901Z,1001.67
2022-10-18T05:53:12.323Z,1001.66
2022-10-18T05:54:09.319Z,1001.62
2022-10-18T05:55:09.099Z,1001.66
2022-10-18T05:56:09.842Z,1001.64
2022-10-18T05:57:09.050Z,1001.67
2022-10-18T05:58:09.049Z,1001.69
2022-10-18T05:59:09.033Z,1001.67
2022-10-18T06:00:09.007Z,1001.64
2022-10-18T06:01:09.878Z,1001.70
2022-10-18T06:02:10.043Z,1001.64
2022-10-18T06:03:09.098Z,1001.57
2022-10-18T06:04:08.982Z,1001.65
2022-10-18T06:05:08.960Z,1001.65
2022-10-18T06:06:08.976Z,1001.64
2022-10-18T06:07:08.935Z,1001.58
2022-10-18T06:08:10.326Z,1001.63
2022-10-18T06:09:08.935Z,1001.62
2022-10-18T06:10:08.875Z,1001.59
2022-10-18T06:11:09.883Z,1001.66
2022-10-18T06:12:08.866Z,1001.63
2022-10-18T06:13:08.859Z,1001.62
2022-10-18T06:14:08.907Z,1001.64
2022-10-18T06:15:08.840Z,1001.67
2022-10-18T06:16:08.839Z,1001.62
2022-10-18T06:17:08.938Z,1001.68
2022-10-18T06:18:08.790Z,1001.68
2022-10-18T06:19:08.815Z,1001.69
2022-10-18T06:20:08.840Z,1001.68
2022-10-18T06:21:09.795Z,1001.68
2022-10-18T06:22:08.760Z,1001.67
2022-10-18T06:23:08.755Z,1001.72
2022-10-18T06:24:08.772Z,1001.71
2022-10-18T06:25:08.712Z,1001.68
2022-10-18T06:26:08.739Z,1001.73
2022-10-18T06:27:08.704Z,1001.72
2022-10-18T06:28:10.212Z,1001.77
2022-10-18T06:29:08.831Z,1001.77
2022-10-18T06:30:09.268Z,1001.78
2022-10-18T06:31:08.769Z,1001.78
2022-10-18T06:32:08.644Z,1001.78
2022-10-18T06:33:08.653Z,1001.80
2022-10-18T06:34:08.625Z,1001.84
2022-10-18T06:35:08.628Z,1001.83
2022-10-18T06:36:08.588Z,1001.79
2022-10-18T06:37:08.616Z,1001.76
2022-10-18T06:38:08.633Z,1001.79
2022-10-18T06:39:08.673Z,1001.81
2022-10-18T06:40:08.568Z,1001.77
2022-10-18T06:41:08.539Z,1001.77
2022-10-18T06:42:08.529Z,1001.77
2022-10-18T06:43:20.134Z,1001.73
2022-10-18T06:44:11.402Z,1001.72
2022-10-18T06:45:09.298Z,1001.76
2022-10-18T06:46:08.516Z,1001.73
2022-10-18T06:47:08.514Z,1001.75
2022-10-18T06:48:08.533Z,1001.81
2022-10-18T06:49:08.466Z,1001.80
2022-10-18T06:50:08.453Z,1001.75
2022-10-18T06:51:08.472Z,1001.74
2022-10-18T06:52:08.470Z,1001.70
2022-10-18T06:53:08.520Z,1001.67
2022-10-18T06:54:19.126Z,1001.70
2022-10-18T06:55:10.382Z,1001.68
2022-10-18T06:56:09.205Z,1001.71
2022-10-18T06:57:09.274Z,1001.71
2022-10-18T06:58:09.286Z,1001.71
2022-10-18T06:59:08.335Z,1001.69
2022-10-18T07:00:08.333Z,1001.69
2022-10-18T07:01:09.305Z,1001.69
2022-10-18T07:02:08.320Z,1001.74
2022-10-18T07:03:08.310Z,1001.75
2022-10-18T07:04:08.461Z,1001.75
2022-10-18T07:05:08.348Z,1001.78
2022-10-18T07:06:08.325Z,1001.81
2022-10-18T07:07:08.250Z,1001.77
2022-10-18T07:08:08.503Z,1001.83
2022-10-18T07:09:08.308Z,1001.80
2022-10-18T07:10:11.170Z,1001.80
2022-10-18T07:11:08.353Z,1001.84
2022-10-18T07:12:08.255Z,1001.88
2022-10-18T07:13:30.958Z,1001.84
2022-10-18T07:14:13.929Z,1001.88
2022-10-18T07:15:09.656Z,1001.91
2022-10-18T07:16:11.531Z,1001.89
2022-10-18T07:17:09.130Z,1001.86
2022-10-18T07:18:08.282Z,1001.89
2022-10-18T07:19:08.785Z,1001.92
2022-10-18T07:20:08.150Z,1001.86
2022-10-18T07:21:08.766Z,1001.89
2022-10-18T07:22:08.083Z,1001.90
2022-10-18T07:23:08.091Z,1001.97
2022-10-18T07:24:08.071Z,1002.03
2022-10-18T07:25:08.136Z,1001.98
2022-10-18T07:26:08.031Z,1001.99
2022-10-18T07:27:08.075Z,1001.98
2022-10-18T07:28:08.103Z,1002.01
2022-10-18T07:29:09.202Z,1002.07
2022-10-18T07:30:08.059Z,1002.09
2022-10-18T07:31:08.139Z,1002.09
2022-10-18T07:32:07.955Z,1002.12
2022-10-18T07:33:08.800Z,1002.15
2022-10-18T07:34:07.949Z,1002.18
2022-10-18T07:35:08.738Z,1002.15
2022-10-18T07:36:07.964Z,1002.21
2022-10-18T07:37:07.890Z,1002.25
2022-10-18T07:38:07.936Z,1002.30
2022-10-18T07:39:07.894Z,1002.34
2022-10-18T07:40:07.964Z,1002.34
2022-10-18T07:41:07.867Z,1002.32
2022-10-18T07:42:07.989Z,1002.34
2022-10-18T07:43:11.396Z,1002.31
2022-10-18T07:44:08.827Z,1002.29
2022-10-18T07:45:07.895Z,1002.25
2022-10-18T07:46:07.828Z,1002.32
2022-10-18T07:47:07.784Z,1002.34
2022-10-18T07:48:07.765Z,1002.33
2022-10-18T07:49:07.755Z,1002.36
2022-10-18T07:50:07.755Z,1002.32
2022-10-18T07:51:08.699Z,1002.38
2022-10-18T07:52:08.777Z,1002.30
2022-10-18T07:53:07.717Z,1002.28
2022-10-18T07:54:07.716Z,1002.33
2022-10-18T07:55:07.732Z,1002.29
2022-10-18T07:56:09.497Z,1002.37
2022-10-18T07:57:07.708Z,1002.32
2022-10-18T07:58:07.786Z,1002.30
2022-10-18T07:59:07.659Z,1002.26
2022-10-18T08:00:08.391Z,1002.32
2022-10-18T08:01:07.699Z,1002.30
2022-10-18T08:02:07.620Z,1002.36
2022-10-18T08:03:07.620Z,1002.37
2022-10-18T08:04:10.614Z,1002.29
2022-10-18T08:05:09.577Z,1002.31
2022-10-18T08:06:07.633Z,1002.31
2022-10-18T08:07:07.555Z,1002.29
2022-10-18T08:08:08.217Z,1002.30
2022-10-18T08:09:07.519Z,1002.30
2022-10-18T08:10:07.530Z,1002.30
2022-10-18T08:11:07.546Z,1002.27
2022-10-18T08:12:07.552Z,1002.32
2022-10-18T08:13:07.518Z,1002.26
2022-10-18T08:14:07.474Z,1002.32
2022-10-18T08:15:08.373Z,1002.33
2022-10-18T08:16:07.552Z,1002.25
2022-10-18T08:17:07.420Z,1002.34
2022-10-18T08:18:07.431Z,1002.33
2022-10-18T08:19:07.450Z,1002.29
2022-10-18T08:20:12.248Z,1002.29
2022-10-18T08:21:09.393Z,1002.24
2022-10-18T08:22:07.381Z,1002.28
2022-10-18T08:23:07.453Z,1002.31
2022-10-18T08:24:07.353Z,1002.30
2022-10-18T08:25:07.359Z,1002.31
2022-10-18T08:26:07.379Z,1002.26
2022-10-18T08:27:07.408Z,1002.34
2022-10-18T08:28:07.324Z,1002.35
2022-10-18T08:29:21.885Z,1002.36
2022-10-18T08:30:09.297Z,1002.36
2022-10-18T08:31:07.299Z,1002.28
2022-10-18T08:32:07.285Z,1002.43
2022-10-18T08:33:07.309Z,1002.42
2022-10-18T08:34:07.235Z,1002.41
2022-10-18T08:35:08.665Z,1002.38
2022-10-18T08:36:07.262Z,1002.42
2022-10-18T08:37:07.258Z,1002.52
2022-10-18T08:38:07.910Z,1002.47
2022-10-18T08:39:07.209Z,1002.50
2022-10-18T08:40:07.298Z,1002.51
2022-10-18T08:41:07.168Z,1002.55
2022-10-18T08:42:07.245Z,1002.54
2022-10-18T08:43:07.158Z,1002.59
2022-10-18T08:44:07.564Z,1002.54
2022-10-18T08:45:17.814Z,1002.60
2022-10-18T08:46:08.751Z,1002.60
2022-10-18T08:47:07.129Z,1002.63
2022-10-18T08:48:07.126Z,1002.62
2022-10-18T08:49:07.110Z,1002.63
2022-10-18T08:50:07.091Z,1002.64
2022-10-18T08:51:07.080Z,1002.67
2022-10-18T08:52:07.111Z,1002.67
2022-10-18T08:53:07.070Z,1002.73
2022-10-18T08:54:07.059Z,1002.67
2022-10-18T08:55:07.062Z,1002.63
2022-10-18T08:56:07.766Z,1002.71
2022-10-18T08:57:06.999Z,1002.68
2022-10-18T08:58:07.003Z,1002.66
2022-10-18T08:59:07.039Z,1002.70
2022-10-18T09:00:06.988Z,1002.67
2022-10-18T09:01:06.992Z,1002.67
2022-10-18T09:02:06.955Z,1002.69
2022-10-18T09:03:06.994Z,1002.68
2022-10-18T09:04:06.952Z,1002.67
2022-10-18T09:05:06.943Z,1002.63
2022-10-18T09:06:06.895Z,1002.67
2022-10-18T09:07:06.918Z,1002.68
2022-10-18T09:08:06.931Z,1002.67
2022-10-18T09:09:07.415Z,1002.73
2022-10-18T09:10:06.926Z,1002.68
2022-10-18T09:11:06.842Z,1002.73
2022-10-18T09:12:06.853Z,1002.77
2022-10-18T09:13:06.843Z,1002.71
2022-10-18T09:14:06.804Z,1002.74
2022-10-18T09:15:06.789Z,1002.67
2022-10-18T09:16:06.785Z,1002.74
2022-10-18T09:17:06.795Z,1002.72
2022-10-18T09:18:06.763Z,1002.68
2022-10-18T09:19:06.741Z,1002.68
2022-10-18T09:20:06.725Z,1002.74
2022-10-18T09:21:06.748Z,1002.76
2022-10-18T09:22:09.636Z,1002.76
2022-10-18T09:23:06.763Z,1002.73
2022-10-18T09:24:06.712Z,1002.78
2022-10-18T09:25:06.664Z,1002.73
2022-10-18T09:26:06.660Z,1002.80
2022-10-18T09:27:06.660Z,1002.76
2022-10-18T09:28:06.627Z,1002.82
2022-10-18T09:29:06.688Z,1002.79
2022-10-18T09:30:06.675Z,1002.84
2022-10-18T09:31:06.592Z,1002.85
2022-10-18T09:32:06.641Z,1002.93
2022-10-18T09:33:06.577Z,1002.88
2022-10-18T09:34:06.573Z,1002.92
2022-10-18T09:35:06.552Z,1002.84
2022-10-18T09:36:06.572Z,1002.95
2022-10-18T09:37:06.553Z,1002.94
2022-10-18T09:38:06.631Z,1002.96
2022-10-18T09:39:06.517Z,1002.86
2022-10-18T09:40:06.499Z,1002.94
2022-10-18T09:41:06.492Z,1002.94
2022-10-18T09:42:06.509Z,1002.94
2022-10-18T09:43:06.506Z,1002.96
2022-10-18T09:44:06.454Z,1003.01
2022-10-18T09:45:06.446Z,1002.99
2022-10-18T09:46:06.431Z,1003.03
2022-10-18T09:47:06.436Z,1002.96
2022-10-18T09:48:06.515Z,1003.02
2022-10-18T09:49:06.423Z,1003.02
2022-10-18T09:50:06.406Z,1002.99
2022-10-18T09:51:06.378Z,1003.05
2022-10-18T09:52:06.375Z,1002.99
2022-10-18T09:53:06.395Z,1002.99
2022-10-18T09:54:06.466Z,1003.01
2022-10-18T09:55:06.366Z,1002.94
2022-10-18T09:56:06.331Z,1003.00
2022-10-18T09:57:06.322Z,1003.00
2022-10-18T09:58:06.305Z,1003.04
2022-10-18T09:59:06.317Z,1003.04
2022-10-18T10:00:06.330Z,1003.04
2022-10-18T10:01:06.256Z,1003.09
2022-10-18T10:02:06.359Z,1003.00
2022-10-18T10:03:06.242Z,1003.00
2022-10-18T10:04:06.394Z,1003.10
2022-10-18T10:05:06.705Z,1003.13
2022-10-18T10:06:06.246Z,1003.12
2022-10-18T10:07:06.257Z,1003.16
2022-10-18T10:08:06.279Z,1003.05
2022-10-18T10:09:07.302Z,1003.02
2022-10-18T10:10:06.243Z,1003.02
2022-10-18T10:11:06.416Z,1002.97
2022-10-18T10:12:06.338Z,1002.99
2022-10-18T10:13:06.188Z,1002.97
2022-10-18T10:14:06.275Z,1003.01
2022-10-18T10:15:06.116Z,1002.96
2022-10-18T10:16:06.534Z,1002.91
2022-10-18T10:17:06.149Z,1002.93
2022-10-18T10:18:06.311Z,1002.92
2022-10-18T10:19:06.099Z,1002.91
2022-10-18T10:20:06.058Z,1002.90
2022-10-18T10:21:06.044Z,1002.93
2022-10-18T10:22:06.270Z,1002.96
2022-10-18T10:23:06.075Z,1002.94
2022-10-18T10:24:07.272Z,1002.99
2022-10-18T10:25:06.417Z,1002.98
2022-10-18T10:26:06.128Z,1002.98
2022-10-18T10:27:06.070Z,1003.00
2022-10-18T10:28:06.097Z,1002.97
2022-10-18T10:29:13.222Z,1003.01
2022-10-18T10:30:07.605Z,1002.94
2022-10-18T10:31:07.143Z,1003.05
2022-10-18T10:32:06.212Z,1003.00
2022-10-18T10:33:06.093Z,1003.00
2022-10-18T10:34:05.973Z,1002.91
2022-10-18T10:35:07.909Z,1002.93
2022-10-18T10:36:06.071Z,1003.03
2022-10-18T10:37:06.229Z,1002.99
2022-10-18T10:38:05.982Z,1002.97
2022-10-18T10:39:05.872Z,1003.01
2022-10-18T10:40:25.133Z,1002.96
2022-10-18T10:41:07.989Z,1002.98
2022-10-18T10:42:09.257Z,1002.99
2022-10-18T10:43:19.589Z,1002.99
2022-10-18T10:44:08.165Z,1003.01
2022-10-18T10:45:05.863Z,1003.04
2022-10-18T10:46:05.995Z,1002.96
2022-10-18T10:47:05.993Z,1002.91
2022-10-18T10:48:06.069Z,1002.94
2022-10-18T10:49:39.131Z,1002.89
2022-10-18T10:50:08.150Z,1002.87
2022-10-18T10:51:05.712Z,1002.92
2022-10-18T10:52:22.434Z,1002.94
2022-10-18T10:53:08.072Z,1002.89
2022-10-18T10:54:05.698Z,1002.91
2022-10-18T10:55:22.972Z,1002.85
2022-10-18T10:56:07.713Z,1002.86
2022-10-18T10:57:05.929Z,1002.93
2022-10-18T10:58:05.665Z,1002.92
2022-10-18T10:59:05.715Z,1002.96
2022-10-18T11:00:05.636Z,1002.97
2022-10-18T11:01:07.837Z,1002.97
2022-10-18T11:02:05.640Z,1002.96
2022-10-18T11:03:27.265Z,1003.02
2022-10-18T11:04:07.593Z,1003.01
2022-10-18T11:05:05.676Z,1003.02
2022-10-18T11:06:05.633Z,1003.07
2022-10-18T11:07:05.536Z,1003.03
2022-10-18T11:08:05.735Z,1003.08
2022-10-18T11:09:05.526Z,1002.94
2022-10-18T11:10:05.607Z,1002.97
2022-10-18T11:11:05.633Z,1003.01
2022-10-18T11:12:06.321Z,1003.02
2022-10-18T11:13:05.435Z,1002.94
2022-10-18T11:14:25.653Z,1002.97
2022-10-18T11:15:07.542Z,1003.00
2022-10-18T11:16:05.523Z,1002.97
2022-10-18T11:17:07.963Z,1002.93
2022-10-18T11:18:05.450Z,1002.98
2022-10-18T11:19:05.418Z,1002.97
2022-10-18T11:20:05.395Z,1003.01
2022-10-18T11:21:05.468Z,1002.96
2022-10-18T11:22:05.474Z,1002.96
2022-10-18T11:23:05.401Z,1002.98
2022-10-18T11:24:05.386Z,1002.97
2022-10-18T11:25:05.377Z,1003.00
2022-10-18T11:26:05.499Z,1002.98
2022-10-18T11:27:05.324Z,1003.04
2022-10-18T11:28:05.333Z,1003.03
2022-10-18T11:29:05.461Z,1003.03
2022-10-18T11:30:05.445Z,1003.08
2022-10-18T11:31:05.224Z,1003.03
2022-10-18T11:32:05.831Z,1003.00
2022-10-18T11:33:05.303Z,1003.01
2022-10-18T11:34:09.943Z,1002.98
2022-10-18T11:35:07.306Z,1003.01
2022-10-18T11:36:05.568Z,1003.10
2022-10-18T11:37:26.647Z,1002.97
2022-10-18T11:38:07.194Z,1003.00
2022-10-18T11:39:05.258Z,1002.97
2022-10-18T11:40:05.187Z,1002.99
2022-10-18T11:41:05.131Z,1002.97
2022-10-18T11:42:05.178Z,1002.95
2022-10-18T11:43:05.145Z,1002.95
2022-10-18T11:44:05.099Z,1002.95
2022-10-18T11:45:05.136Z,1002.92
2022-10-18T11:46:05.090Z,1002.90
2022-10-18T11:47:05.071Z,1002.91
2022-10-18T11:48:05.148Z,1002.87
2022-10-18T11:49:05.067Z,1002.94
2022-10-18T11:50:05.095Z,1002.88
2022-10-18T11:51:05.061Z,1002.94
2022-10-18T11:52:09.152Z,1002.91
2022-10-18T11:53:06.028Z,1002.98
2022-10-18T11:54:04.991Z,1002.90
2022-10-18T11:55:05.008Z,1002.94
2022-10-18T11:56:04.981Z,1002.92
2022-10-18T11:57:04.976Z,1002.89
2022-10-18T11:58:05.859Z,1002.89
2022-10-18T11:59:04.935Z,1002.84
2022-10-18T12:00:04.916Z,1002.88
2022-10-18T12:01:05.089Z,1002.82
2022-10-18T12:02:04.901Z,1002.83
2022-10-18T12:03:05.039Z,1002.95
2022-10-18T12:04:04.887Z,1002.86
2022-10-18T12:05:22.445Z,1002.88
2022-10-18T12:06:06.886Z,1002.90
2022-10-18T12:07:04.872Z,1002.80